Time;durP1;ratioP1;P1;durP2;ratioP2;P2;SDS_P1;SDS_P2;PMS_P1;PMS_P2;Temp;Humidity;BMP_temperature;BMP_pressure;BME280_temperature;BME280_humidity;BME280_pressure;Samples;Min_cycle;Max_cycle;Signal;HPM_P1;HPM_P2
2023/03/12 00:02:12;;;;;;;4.80;3.15;;;2.20;99.90;;;;;;6132001;23;20048;-75
2023/03/12 00:04:38;;;;;;;5.93;3.20;;;1.40;99.90;;;;;;6084342;23;20025;-76
2023/03/12 00:07:05;;;;;;;6.10;2.95;;;1.10;99.90;;;;;;6107427;23;20059;-76
2023/03/12 00:09:34;;;;;;;6.47;2.80;;;1.50;99.90;;;;;;6132243;23;20029;-76
2023/03/12 00:12:00;;;;;;;5.13;2.83;;;1.10;99.90;;;;;;6131984;23;20104;-75
2023/03/12 00:14:26;;;;;;;5.88;2.92;;;2.80;99.90;;;;;;6132826;23;20014;-76
2023/03/12 00:16:51;;;;;;;4.80;2.70;;;1.20;99.90;;;;;;6083500;23;20018;-76
2023/03/12 00:19:17;;;;;;;7.05;3.03;;;1.10;99.90;;;;;;6131221;23;20185;-76
2023/03/12 00:21:43;;;;;;;5.05;3.20;;;2.90;99.90;;;;;;6083522;23;20024;-75
2023/03/12 00:24:08;;;;;;;5.20;3.08;;;2.90;99.90;;;;;;6083545;23;20022;-75
2023/03/12 00:26:34;;;;;;;3.90;2.60;;;3.10;99.90;;;;;;6131567;23;20020;-74
2023/03/12 00:29:00;;;;;;;6.63;2.90;;;1.40;99.90;;;;;;6107429;23;20021;-77
2023/03/12 00:31:30;;;;;;;6.25;2.80;;;1.20;99.90;;;;;;6107394;23;20181;-76
2023/03/12 00:33:56;;;;;;;5.45;2.85;;;1.10;99.90;;;;;;6107516;23;20022;-74
2023/03/12 00:36:25;;;;;;;5.07;2.97;;;1.30;99.90;;;;;;6106416;23;20028;-75
2023/03/12 00:38:52;;;;;;;5.43;2.78;;;1.40;99.90;;;;;;6132028;23;20312;-76
2023/03/12 00:41:21;;;;;;;7.57;3.10;;;1.10;99.90;;;;;;6107412;23;20021;-75
2023/03/12 00:43:47;;;;;;;9.93;3.33;;;2.30;99.90;;;;;;6107418;23;20327;-75
2023/03/12 00:46:13;;;;;;;4.78;3.15;;;3.20;99.90;;;;;;6131133;23;20031;-74
2023/03/12 00:48:39;;;;;;;6.88;4.18;;;1.10;99.90;;;;;;6106845;23;20334;-75
2023/03/12 00:51:06;;;;;;;10.15;3.88;;;1.10;99.90;;;;;;6131229;23;20048;-74
2023/03/12 00:53:31;;;;;;;5.97;3.67;;;1.30;99.90;;;;;;6107160;23;20010;-74
2023/03/12 00:55:57;;;;;;;6.40;3.80;;;1.20;99.90;;;;;;6106567;23;20021;-75
2023/03/12 00:58:23;;;;;;;5.60;3.53;;;3.30;99.90;;;;;;6129503;23;20037;-76
2023/03/12 01:00:49;;;;;;;6.75;3.72;;;1.40;99.90;;;;;;6106669;23;20010;-76
2023/03/12 01:03:15;;;;;;;6.15;4.03;;;1.00;99.90;;;;;;6130913;23;20017;-74
2023/03/12 01:05:41;;;;;;;7.75;4.20;;;2.00;99.90;;;;;;6107160;23;20053;-75
2023/03/12 01:08:08;;;;;;;5.85;4.13;;;1.00;99.90;;;;;;6105995;23;20069;-75
2023/03/12 01:10:34;;;;;;;6.20;4.60;;;1.40;99.90;;;;;;6131934;23;20021;-74
2023/03/12 01:13:00;;;;;;;8.25;4.22;;;1.40;99.90;;;;;;6131607;23;20081;-74
2023/03/12 01:15:26;;;;;;;7.07;4.18;;;1.00;99.90;;;;;;6130964;23;20574;-74
2023/03/12 01:17:51;;;;;;;7.55;4.88;;;1.30;99.90;;;;;;6131267;23;20010;-75
2023/03/12 01:20:17;;;;;;;5.35;3.90;;;2.00;99.90;;;;;;6107037;23;20017;-75
2023/03/12 01:22:43;;;;;;;9.38;4.22;;;1.00;99.90;;;;;;6105960;23;20093;-76
2023/03/12 01:25:09;;;;;;;6.85;3.83;;;1.70;99.90;;;;;;6130985;23;20020;-75
2023/03/12 01:27:35;;;;;;;5.63;3.70;;;3.10;99.90;;;;;;6131321;23;20020;-76
2023/03/12 01:30:02;;;;;;;10.55;4.90;;;1.50;99.90;;;;;;6129719;23;20022;-74
2023/03/12 01:32:28;;;;;;;6.85;4.70;;;3.10;99.90;;;;;;6131057;23;20014;-73
2023/03/12 01:34:54;;;;;;;5.85;4.00;;;1.00;99.90;;;;;;6106976;23;20014;-75
2023/03/12 01:37:19;;;;;;;6.05;3.97;;;2.30;99.90;;;;;;6106581;23;20018;-74
2023/03/12 01:39:45;;;;;;;9.57;4.43;;;1.30;99.90;;;;;;6106950;23;20025;-75
2023/03/12 01:42:11;;;;;;;5.60;4.05;;;1.20;99.90;;;;;;6082832;23;20022;-75
2023/03/12 01:44:59;;;;;;;6.60;4.22;;;1.20;99.90;;;;;;6107501;23;20166;-74
2023/03/12 01:47:26;;;;;;;5.97;4.68;;;1.30;99.90;;;;;;6130982;23;20014;-76
2023/03/12 01:49:54;;;;;;;6.00;4.28;;;2.10;99.90;;;;;;6106442;23;20014;-75
2023/03/12 01:52:25;;;;;;;6.10;4.30;;;1.00;99.90;;;;;;6106265;23;20216;-75
2023/03/12 01:54:57;;;;;;;6.32;3.85;;;1.20;99.90;;;;;;6131375;23;20320;-75
2023/03/12 01:58:00;;;;;;;5.95;4.43;;;2.30;99.90;;;;;;6106529;23;20017;-76
2023/03/12 02:00:26;;;;;;;8.70;4.38;;;1.20;99.90;;;;;;6018391;23;20453;-76
2023/03/12 02:02:58;;;;;;;8.75;4.70;;;1.00;99.90;;;;;;6107543;23;20068;-77
2023/03/12 02:05:43;;;;;;;7.30;3.90;;;1.40;99.90;;;;;;6105677;23;20077;-76
2023/03/12 02:08:13;;;;;;;6.55;3.70;;;1.10;99.90;;;;;;6129753;23;20025;-75
2023/03/12 02:10:39;;;;;;;7.68;4.50;;;2.00;99.90;;;;;;6106804;23;20018;-74
2023/03/12 02:13:05;;;;;;;8.13;4.07;;;1.30;99.90;;;;;;6131248;23;20375;-76
2023/03/12 02:15:33;;;;;;;5.35;4.00;;;1.80;99.90;;;;;;6130483;23;20041;-76
2023/03/12 02:18:01;;;;;;;5.63;4.03;;;1.40;99.90;;;;;;6107088;23;20017;-76
2023/03/12 02:20:45;;;;;;;6.85;4.30;;;1.80;99.90;;;;;;6105533;23;20565;-76
2023/03/12 02:23:20;;;;;;;7.88;3.97;;;1.70;99.90;;;;;;6130071;23;20010;-75
2023/03/12 02:25:50;;;;;;;8.93;3.72;;;2.70;99.90;;;;;;6106504;23;20018;-75
2023/03/12 02:28:19;;;;;;;6.68;4.07;;;2.30;99.90;;;;;;6130118;23;20057;-76
2023/03/12 02:30:48;;;;;;;6.65;3.97;;;2.20;99.90;;;;;;6129688;23;20240;-75
2023/03/12 02:33:14;;;;;;;9.35;3.83;;;2.00;99.90;;;;;;6107354;23;20014;-75
2023/03/12 02:35:41;;;;;;;5.93;3.55;;;2.00;99.90;;;;;;6084810;23;20021;-75
2023/03/12 02:38:35;;;;;;;5.07;3.55;;;1.80;99.90;;;;;;6107990;23;20312;-75
2023/03/12 02:41:09;;;;;;;13.25;4.03;;;1.80;99.90;;;;;;6132325;23;20010;-75
2023/03/12 02:43:35;;;;;;;6.78;3.05;;;1.80;99.90;;;;;;6108333;23;20251;-75
2023/03/12 02:46:00;;;;;;;4.72;3.45;;;2.70;99.90;;;;;;6084785;23;20014;-77
2023/03/12 02:48:26;;;;;;;5.63;2.55;;;2.20;99.90;;;;;;6083560;23;20045;-76
2023/03/12 02:50:52;;;;;;;5.28;2.97;;;1.80;99.90;;;;;;6131910;23;20092;-78
2023/03/12 02:53:17;;;;;;;4.65;2.88;;;2.40;99.90;;;;;;6108271;23;20014;-76
2023/03/12 02:55:43;;;;;;;7.15;3.72;;;2.30;99.90;;;;;;6084223;23;20492;-75
2023/03/12 02:58:09;;;;;;;7.43;3.25;;;2.20;99.90;;;;;;6060442;23;20010;-75
2023/03/12 03:00:36;;;;;;;6.47;3.25;;;2.00;99.90;;;;;;6059295;23;20222;-75
2023/03/12 03:03:02;;;;;;;7.68;3.83;;;2.50;99.90;;;;;;6108351;23;20178;-75
2023/03/12 03:05:28;;;;;;;5.13;3.38;;;2.30;99.90;;;;;;6083612;23;20050;-75
2023/03/12 03:07:54;;;;;;;5.53;3.28;;;2.70;99.90;;;;;;6108087;23;20375;-74
2023/03/12 03:10:19;;;;;;;7.90;4.25;;;2.30;99.90;;;;;;6131056;23;20014;-75
2023/03/12 03:12:45;;;;;;;6.13;3.67;;;2.70;99.90;;;;;;6084620;23;20037;-74
2023/03/12 03:15:11;;;;;;;5.55;3.58;;;3.20;99.90;;;;;;6109044;23;20026;-75
2023/03/12 03:17:37;;;;;;;5.68;3.50;;;2.40;99.90;;;;;;6132667;23;20233;-74
2023/03/12 03:20:07;;;;;;;5.32;3.20;;;2.20;99.90;;;;;;6132530;23;20424;-75
2023/03/12 03:22:33;;;;;;;4.82;2.88;;;2.30;99.90;;;;;;6108256;23;20024;-74
2023/03/12 03:24:59;;;;;;;7.22;3.20;;;3.40;99.90;;;;;;6108139;23;20013;-75
2023/03/12 03:27:24;;;;;;;3.72;2.67;;;2.20;99.90;;;;;;6107000;23;20022;-75
2023/03/12 03:29:50;;;;;;;4.72;2.53;;;2.60;99.90;;;;;;6082658;23;20552;-76
2023/03/12 03:32:16;;;;;;;5.90;2.90;;;3.90;99.90;;;;;;6083125;23;20068;-75
2023/03/12 03:34:41;;;;;;;5.00;3.13;;;2.40;99.90;;;;;;6083419;23;20084;-75
2023/03/12 03:37:07;;;;;;;5.55;3.10;;;2.80;99.90;;;;;;6108119;23;20016;-76
2023/03/12 03:39:33;;;;;;;10.57;3.70;;;2.10;99.90;;;;;;6107338;23;20009;-75
2023/03/12 03:41:59;;;;;;;6.93;3.15;;;2.10;99.90;;;;;;6106737;23;20010;-75
2023/03/12 03:44:24;;;;;;;8.02;3.25;;;3.10;99.90;;;;;;6107185;23;20213;-75
2023/03/12 03:46:52;;;;;;;5.80;3.05;;;2.30;99.90;;;;;;6108372;23;20073;-76
2023/03/12 03:49:18;;;;;;;5.72;3.17;;;2.10;99.90;;;;;;6108168;23;20236;-76
2023/03/12 03:51:44;;;;;;;4.63;2.88;;;2.40;99.90;;;;;;6132323;23;20077;-75
2023/03/12 03:54:10;;;;;;;5.28;2.90;;;2.10;99.90;;;;;;6107326;23;20056;-75
2023/03/12 03:56:40;;;;;;;4.38;2.80;;;2.50;99.90;;;;;;6084451;23;20017;-78
2023/03/12 03:59:06;;;;;;;3.80;2.67;;;3.90;99.90;;;;;;6106688;23;20017;-78
2023/03/12 04:01:31;;;;;;;6.10;2.97;;;2.10;99.90;;;;;;6081479;23;20045;-78
2023/03/12 04:03:58;;;;;;;4.95;3.05;;;2.80;99.90;;;;;;6106030;23;20018;-76
2023/03/12 04:06:24;;;;;;;12.85;2.72;;;3.10;99.90;;;;;;6132732;23;20018;-76
2023/03/12 04:08:50;;;;;;;7.20;3.22;;;2.80;99.90;;;;;;6107716;23;20017;-75
2023/03/12 04:11:18;;;;;;;5.32;2.92;;;2.40;99.90;;;;;;6106613;23;20072;-76
2023/03/12 04:13:45;;;;;;;5.43;2.67;;;2.10;99.90;;;;;;6107894;23;20036;-77
2023/03/12 04:16:12;;;;;;;5.28;2.70;;;2.20;99.90;;;;;;6132578;23;20022;-76
2023/03/12 04:18:39;;;;;;;7.55;2.60;;;2.30;99.90;;;;;;6107520;23;20222;-77
2023/03/12 04:21:07;;;;;;;4.20;2.72;;;2.00;99.90;;;;;;6132767;23;20082;-76
2023/03/12 04:23:33;;;;;;;5.55;3.20;;;2.10;99.90;;;;;;6106855;23;20052;-75
2023/03/12 04:25:59;;;;;;;5.72;3.22;;;3.90;99.90;;;;;;6132985;23;20021;-74
2023/03/12 04:28:25;;;;;;;4.72;3.22;;;2.10;99.90;;;;;;6084053;23;20021;-74
2023/03/12 04:31:01;;;;;;;4.45;2.90;;;2.60;99.90;;;;;;6132823;23;20200;-77
2023/03/12 04:33:28;;;;;;;7.10;3.20;;;2.70;99.90;;;;;;6083039;23;20013;-76
2023/03/12 04:35:54;;;;;;;4.10;3.28;;;2.30;99.90;;;;;;6132229;23;20014;-77
2023/03/12 04:38:21;;;;;;;5.10;3.20;;;3.10;99.90;;;;;;6107354;23;20213;-76
2023/03/12 04:40:55;;;;;;;6.50;3.45;;;2.20;99.90;;;;;;6131567;23;20010;-75
2023/03/12 04:43:21;;;;;;;6.95;4.18;;;2.30;99.90;;;;;;6130267;23;20018;-77
2023/03/12 04:45:48;;;;;;;4.85;3.75;;;2.30;99.90;;;;;;6108259;23;20323;-77
2023/03/12 04:48:13;;;;;;;4.32;3.75;;;2.20;99.90;;;;;;6107992;23;20048;-77
2023/03/12 04:50:39;;;;;;;4.97;3.42;;;2.10;99.90;;;;;;6083686;23;20022;-77
2023/03/12 04:53:05;;;;;;;5.50;3.65;;;2.80;99.90;;;;;;6107263;23;20022;-76
2023/03/12 04:55:30;;;;;;;4.82;3.58;;;2.30;99.90;;;;;;6107008;23;20017;-75
2023/03/12 04:57:56;;;;;;;6.18;3.05;;;2.90;99.90;;;;;;6130500;23;20018;-75
2023/03/12 05:00:22;;;;;;;6.85;3.40;;;3.70;99.90;;;;;;6106797;23;20201;-79
2023/03/12 05:02:47;;;;;;;6.18;3.55;;;2.20;99.90;;;;;;6131587;23;20342;-77
2023/03/12 05:05:13;;;;;;;7.50;4.10;;;2.40;99.90;;;;;;6059726;23;20088;-77
2023/03/12 05:07:39;;;;;;;6.20;3.95;;;2.10;99.90;;;;;;6106453;23;20028;-76
2023/03/12 05:10:05;;;;;;;9.27;3.95;;;3.40;99.90;;;;;;6107325;23;20027;-78
2023/03/12 05:12:31;;;;;;;6.07;3.47;;;2.40;99.90;;;;;;6058571;23;20010;-78
2023/03/12 05:14:56;;;;;;;5.10;3.50;;;2.30;99.90;;;;;;6130698;23;20085;-77
2023/03/12 05:17:22;;;;;;;7.72;3.33;;;2.10;99.90;;;;;;6130958;23;20025;-78
2023/03/12 05:19:48;;;;;;;6.18;2.75;;;3.50;99.90;;;;;;6131733;23;20276;-75
2023/03/12 05:22:13;;;;;;;5.47;3.67;;;3.90;99.90;;;;;;6131664;23;20052;-73
2023/03/12 05:24:39;;;;;;;5.55;3.13;;;2.10;99.90;;;;;;6106264;23;20018;-74
2023/03/12 05:27:07;;;;;;;6.75;3.42;;;2.20;99.90;;;;;;6082195;23;20014;-73
2023/03/12 05:29:34;;;;;;;5.32;3.33;;;2.60;99.90;;;;;;6107490;23;20018;-77
2023/03/12 05:32:01;;;;;;;8.00;3.72;;;3.80;99.90;;;;;;6131580;23;20215;-76
2023/03/12 05:34:30;;;;;;;5.97;3.42;;;2.40;99.90;;;;;;6105014;23;20284;-76
2023/03/12 05:36:56;;;;;;;5.88;3.72;;;2.20;99.90;;;;;;6083459;23;20069;-76
2023/03/12 05:39:23;;;;;;;7.85;4.20;;;2.40;99.90;;;;;;6083046;23;20010;-75
2023/03/12 05:41:49;;;;;;;3.17;2.35;;;3.70;99.90;;;;;;6132254;23;20181;-74
2023/03/12 05:44:16;;;;;;;5.70;3.53;;;2.80;99.90;;;;;;6082584;23;20009;-76
2023/03/12 05:46:42;;;;;;;6.10;3.75;;;2.40;99.90;;;;;;6131156;23;20327;-75
2023/03/12 05:49:08;;;;;;;7.57;4.43;;;3.00;99.90;;;;;;6107126;23;20020;-77
2023/03/12 05:51:35;;;;;;;8.07;4.15;;;2.10;99.90;;;;;;6082756;23;20192;-76
2023/03/12 05:54:01;;;;;;;6.57;4.47;;;2.20;99.90;;;;;;6106666;23;20304;-75
2023/03/12 05:56:26;;;;;;;8.63;4.45;;;3.30;99.90;;;;;;6080561;23;20080;-76
2023/03/12 05:58:52;;;;;;;10.18;4.50;;;4.00;99.90;;;;;;6130500;23;20010;-76
2023/03/12 06:01:21;;;;;;;6.22;4.50;;;4.00;99.90;;;;;;6083047;23;20173;-76
2023/03/12 06:03:47;;;;;;;7.63;3.45;;;3.40;99.90;;;;;;6130963;23;20049;-76
2023/03/12 06:06:13;;;;;;;8.82;4.10;;;2.60;99.90;;;;;;6082248;23;20030;-75
2023/03/12 06:08:40;;;;;;;9.07;4.88;;;3.50;99.90;;;;;;6131875;23;20014;-75
2023/03/12 06:11:05;;;;;;;7.60;5.50;;;4.10;99.90;;;;;;6132580;23;20009;-74
2023/03/12 06:13:31;;;;;;;8.73;4.55;;;2.40;99.90;;;;;;6107908;23;20006;-75
2023/03/12 06:16:03;;;;;;;6.22;4.60;;;2.30;99.90;;;;;;6060661;23;20241;-77
2023/03/12 06:18:30;;;;;;;7.18;4.43;;;3.10;99.90;;;;;;6132463;23;20061;-76
2023/03/12 06:28:20;;;;;;;5.82;3.70;;;1.20;99.90;;;;;;5927594;24;20023;-77
2023/03/12 06:30:46;;;;;;;6.38;4.90;;;2.30;99.90;;;;;;5962117;24;20023;-75
2023/03/12 06:33:15;;;;;;;6.65;3.85;;;2.30;99.90;;;;;;5961897;24;20016;-77
2023/03/12 06:36:06;;;;;;;8.40;4.18;;;2.40;99.90;;;;;;6049645;23;20030;-76
2023/03/12 06:38:32;;;;;;;6.95;4.53;;;2.40;99.90;;;;;;6074747;23;20029;-75
2023/03/12 06:41:01;;;;;;;6.95;4.82;;;2.40;99.90;;;;;;6051276;23;20332;-77
2023/03/12 06:43:28;;;;;;;10.00;5.18;;;2.50;99.90;;;;;;6051091;23;20010;-76
2023/03/12 06:45:56;;;;;;;6.75;4.40;;;2.50;99.90;;;;;;6051874;23;20021;-76
2023/03/12 06:52:36;;;;;;;8.80;5.13;;;2.90;99.90;;;;;;5967955;23;20035;-78
2023/03/12 06:55:02;;;;;;;10.63;6.03;;;2.50;99.90;;;;;;5998746;23;20015;-76
2023/03/12 06:57:28;;;;;;;9.38;6.00;;;2.40;99.90;;;;;;6050765;23;20073;-75
2023/03/12 06:59:59;;;;;;;15.98;6.43;;;2.40;99.90;;;;;;6104839;23;20403;-77
2023/03/12 07:06:16;;;;;;;13.63;6.15;;;1.80;99.90;;;;;;6131951;23;20113;-76
2023/03/12 07:08:54;;;;;;;8.35;6.03;;;2.60;99.90;;;;;;6106383;23;20032;-75
2023/03/12 07:14:29;;;;;;;9.95;6.45;;;2.60;99.90;;;;;;6133589;23;20014;-75
2023/03/12 07:17:01;;;;;;;9.23;6.50;;;3.10;99.90;;;;;;6107700;23;20069;-77
2023/03/12 07:19:29;;;;;;;12.10;6.97;;;4.90;99.90;;;;;;6107293;23;20017;-78
2023/03/12 07:21:55;;;;;;;12.63;7.63;;;0.80;99.90;;;;;;6132165;23;20519;-78
2023/03/12 07:24:21;;;;;;;10.82;6.60;;;3.00;99.90;;;;;;6131896;23;20025;-76
2023/03/12 07:26:58;;;;;;;9.52;6.28;;;0.60;99.90;;;;;;6131831;23;20029;-74
2023/03/12 07:29:34;;;;;;;;;;;;;;;;;;;;;
2023/03/12 07:32:10;;;;;;;10.40;6.03;;;2.60;99.90;;;;;;6106099;23;20013;-76
2023/03/12 07:34:38;;;;;;;11.65;6.90;;;2.70;99.90;;;;;;6131145;23;20418;-76
2023/03/12 07:37:04;;;;;;;8.93;6.05;;;2.50;99.90;;;;;;6107674;23;20080;-76
2023/03/12 07:43:25;;;;;;;9.73;7.15;;;1.70;99.90;;;;;;6127331;23;20073;-77
2023/03/12 07:46:20;;;;;;;10.77;6.30;;;2.70;99.90;;;;;;6106318;23;20017;-76
2023/03/12 07:48:46;;;;;;;10.98;7.45;;;2.70;99.90;;;;;;6127276;23;20041;-75
2023/03/12 07:51:11;;;;;;;9.93;6.47;;;3.10;99.90;;;;;;6131088;23;20014;-76
2023/03/12 07:53:56;;;;;;;;;;;;;;;;;;;;;
2023/03/12 07:56:46;;;;;;;9.32;5.93;;;2.60;99.90;;;;;;6093010;23;20240;-77
2023/03/12 07:59:22;;;;;;;10.52;6.75;;;3.00;99.90;;;;;;6106508;23;20010;-78
2023/03/12 08:02:00;;;;;;;15.35;9.20;;;2.70;99.90;;;;;;6126357;23;20018;-76
2023/03/12 08:05:31;;;;;;;11.13;7.70;;;2.70;99.90;;;;;;6078987;23;20026;-73
2023/03/12 08:07:59;;;;;;;12.88;8.82;;;3.20;99.90;;;;;;6077939;23;20530;-79
2023/03/12 08:10:25;;;;;;;13.63;9.68;;;3.00;99.90;;;;;;6052882;23;20019;-77
2023/03/12 08:13:00;;;;;;;13.05;9.73;;;;;;;;;;6076404;23;20010;-76
2023/03/12 08:15:50;;;;;;;11.55;8.10;;;2.50;99.90;;;;;;6077257;23;20066;-76
2023/03/12 08:18:38;;;;;;;12.30;9.05;;;1.30;99.90;;;;;;6101309;23;20010;-75
2023/03/12 08:21:20;;;;;;;;;;;;;;;;;;;;;
2023/03/12 08:23:47;;;;;;;16.73;11.07;;;2.00;99.90;;;;;;6098597;23;20025;-76
2023/03/12 08:26:16;;;;;;;10.55;7.85;;;2.10;99.90;;;;;;6053409;23;20539;-77
2023/03/12 08:28:42;;;;;;;16.98;11.30;;;2.20;99.90;;;;;;6100201;23;20022;-76
2023/03/12 08:31:22;;;;;;;15.85;8.68;;;2.10;99.90;;;;;;6052509;23;20050;-76
2023/03/12 08:34:08;;;;;;;15.55;9.00;;;2.50;99.90;;;;;;6051917;23;20113;-77
2023/03/12 08:36:36;;;;;;;14.95;9.45;;;2.20;99.90;;;;;;6074119;23;20070;-76
2023/03/12 08:39:05;;;;;;;15.88;10.90;;;2.80;99.90;;;;;;6053312;23;20025;-77
2023/03/12 08:41:31;;;;;;;12.48;8.13;;;2.20;99.90;;;;;;6074252;23;20050;-76
2023/03/12 08:44:25;;;;;;;10.95;8.18;;;2.80;99.90;;;;;;6075996;23;20018;-77
2023/03/12 08:46:51;;;;;;;16.50;11.13;;;1.50;99.90;;;;;;6052401;23;20090;-75
2023/03/12 08:49:18;;;;;;;9.35;7.68;;;2.50;99.90;;;;;;6076210;23;20205;-76
2023/03/12 08:51:43;;;;;;;17.33;11.93;;;2.50;99.90;;;;;;6073543;23;20007;-79
2023/03/12 08:54:09;;;;;;;15.77;11.70;;;2.40;99.90;;;;;;6051776;23;20062;-76
2023/03/12 08:56:41;;;;;;;17.10;12.13;;;1.20;99.90;;;;;;6029430;23;20106;-76
2023/03/12 08:59:10;;;;;;;14.55;8.60;;;2.90;99.90;;;;;;6052859;23;20057;-75
2023/03/12 09:01:36;;;;;;;14.88;10.23;;;2.70;99.90;;;;;;6099611;23;20252;-75
2023/03/12 09:07:41;;;;;;;20.33;12.27;;;2.90;99.90;;;;;;6067066;23;20031;-77
2023/03/12 09:10:07;;;;;;;10.20;7.47;;;5.70;99.90;;;;;;6050360;23;20029;-75
2023/03/12 09:12:40;;;;;;;12.88;7.18;;;3.00;99.90;;;;;;6041029;23;20014;-74
2023/03/12 09:15:16;;;;;;;15.40;8.95;;;2.80;99.90;;;;;;6051781;23;20177;-76
2023/03/12 09:21:22;;;;;;;11.20;7.72;;;2.90;99.90;;;;;;6100666;23;20013;-77
2023/03/12 09:23:53;;;;;;;9.23;6.07;;;2.80;99.90;;;;;;6051633;23;20010;-75
2023/03/12 09:26:22;;;;;;;11.80;8.82;;;3.00;99.90;;;;;;6076649;23;20273;-75
2023/03/12 09:28:49;;;;;;;8.77;6.57;;;2.60;99.90;;;;;;6028990;23;20020;-76
2023/03/12 09:31:20;;;;;;;11.68;8.30;;;2.90;99.90;;;;;;6077544;23;20486;-74
2023/03/12 09:33:46;;;;;;;16.52;11.80;;;4.40;99.90;;;;;;6075403;23;20070;-75
2023/03/12 09:36:13;;;;;;;12.73;8.38;;;2.90;99.90;;;;;;6053627;23;20030;-76
2023/03/12 09:38:38;;;;;;;17.08;12.32;;;2.80;99.90;;;;;;6051720;23;20097;-76
2023/03/12 09:41:05;;;;;;;15.18;11.05;;;4.30;99.90;;;;;;6052059;23;20281;-76
2023/03/12 09:43:36;;;;;;;13.70;9.82;;;2.80;99.90;;;;;;6077514;23;20201;-76
2023/03/12 09:46:03;;;;;;;11.18;8.02;;;2.90;99.90;;;;;;6053727;23;20077;-76
2023/03/12 09:52:59;;;;;;;16.42;11.40;;;3.50;99.90;;;;;;6070300;23;20017;-75
2023/03/12 09:58:59;;;;;;;18.15;12.52;;;2.90;99.90;;;;;;6077479;23;20021;-77
2023/03/12 10:01:56;;;;;;;15.57;10.35;;;2.80;99.90;;;;;;6049512;23;20018;-74
2023/03/12 10:04:55;;;;;;;18.90;13.35;;;3.70;99.90;;;;;;6077977;23;20048;-77
2023/03/12 10:07:47;;;;;;;22.48;16.33;;;3.00;99.90;;;;;;6092190;23;20308;-76
2023/03/12 10:10:38;;;;;;;22.30;14.80;;;4.30;99.90;;;;;;6105002;23;20077;-78
2023/03/12 10:14:00;;;;;;;18.60;13.30;;;2.70;99.90;;;;;;6129693;23;20077;-78
2023/03/12 10:17:42;;;;;;;;;;;;;;;;;;;;;
2023/03/12 10:20:20;;;;;;;23.75;16.00;;;2.40;99.90;;;;;;6128948;23;20198;-76
2023/03/12 10:23:38;;;;;;;20.67;13.98;;;3.10;99.90;;;;;;6128774;23;20033;-77
2023/03/12 10:26:25;;;;;;;23.05;16.25;;;2.90;99.90;;;;;;6130271;23;20138;-74
2023/03/12 10:33:16;;;;;;;21.77;13.60;;;5.10;99.90;;;;;;6129520;23;20048;-76
2023/03/12 10:35:46;;;;;;;29.67;17.25;;;2.70;99.90;;;;;;6129085;23;20048;-76
2023/03/12 10:38:26;;;;;;;23.10;17.05;;;3.00;99.90;;;;;;6130887;23;20219;-76
2023/03/12 10:40:52;;;;;;;19.23;13.75;;;3.20;99.90;;;;;;6130166;23;20010;-76
2023/03/12 10:43:21;;;;;;;16.45;10.88;;;3.10;99.90;;;;;;6081208;23;20351;-75
2023/03/12 10:50:04;;;;;;;25.83;17.33;;;2.20;99.90;;;;;;6111497;23;20023;-77
2023/03/12 10:52:41;;;;;;;27.15;17.80;;;2.40;99.90;;;;;;6126843;23;20021;-76
2023/03/12 10:55:19;;;;;;;20.88;14.60;;;2.20;99.90;;;;;;6128994;23;20387;-76
2023/03/12 10:57:46;;;;;;;26.67;17.95;;;3.70;99.90;;;;;;6128767;23;20064;-76
2023/03/12 11:00:21;;;;;;;33.92;21.50;;;4.30;99.90;;;;;;6128813;23;20077;-76
2023/03/12 11:03:04;;;;;;;;;;;;;;;;;;;;;
2023/03/12 11:06:09;;;;;;;19.40;11.85;;;3.10;99.90;;;;;;6130117;23;19915;-76
2023/03/12 11:08:36;;;;;;;19.00;11.82;;;4.10;99.90;;;;;;6101832;23;20022;-77
2023/03/12 11:11:04;;;;;;;24.58;16.23;;;4.20;99.90;;;;;;6128086;23;20065;-76
2023/03/12 11:13:33;;;;;;;26.73;18.15;;;4.30;99.90;;;;;;6105808;23;20021;-75
2023/03/12 11:16:19;;;;;;;24.27;15.73;;;2.70;99.90;;;;;;6128809;23;20029;-76
2023/03/12 11:19:05;;;;;;;30.20;20.00;;;4.00;99.90;;;;;;6128722;23;20009;-76
2023/03/12 11:22:21;;;;;;;25.83;16.52;;;4.00;99.90;;;;;;6129658;23;20315;-76
2023/03/12 11:25:01;;;;;;;30.05;19.42;;;5.00;99.90;;;;;;6073082;23;20049;-76
2023/03/12 11:27:51;;;;;;;21.00;15.45;;;4.30;99.90;;;;;;6128962;23;20203;-77
2023/03/12 11:30:51;;;;;;;;;;;;;;;;;;;;;
2023/03/12 11:33:39;;;;;;;23.30;15.63;;;5.60;99.90;;;;;;6129732;23;20017;-75
2023/03/12 11:36:09;;;;;;;27.73;16.40;;;6.50;99.90;;;;;;6104912;23;20312;-75
2023/03/12 11:38:47;;;;;;;25.67;17.30;;;4.30;99.90;;;;;;6129128;23;20082;-76
2023/03/12 11:41:55;;;;;;;19.92;13.95;;;4.40;99.90;;;;;;6130218;23;20017;-77
2023/03/12 11:44:57;;;;;;;25.88;18.00;;;4.80;99.90;;;;;;6129072;23;20268;-76
2023/03/12 11:47:47;;;;;;;29.73;18.80;;;4.60;99.90;;;;;;6128909;23;20113;-76
2023/03/12 11:54:28;;;;;;;24.63;12.90;;;6.10;99.90;;;;;;6070808;23;20054;-76
2023/03/12 11:56:59;;;;;;;32.17;20.92;;;4.30;99.90;;;;;;6071099;23;20149;-77
2023/03/12 12:00:11;;;;;;;33.40;19.60;;;4.30;99.90;;;;;;6052902;23;20017;-76
2023/03/12 12:07:10;;;;;;;;;;;;;;;;;;;;;
2023/03/12 12:10:02;;;;;;;35.33;22.08;;;3.80;99.90;;;;;;6072076;23;20089;-77
2023/03/12 12:13:24;;;;;;;28.10;18.50;;;5.20;99.90;;;;;;6076958;23;20014;-76
2023/03/12 12:16:23;;;;;;;32.72;20.48;;;3.60;99.90;;;;;;6053546;23;20021;-77
2023/03/12 12:19:19;;;;;;;30.60;17.27;;;4.90;99.90;;;;;;6077059;23;20536;-76
2023/03/12 12:22:28;;;;;;;26.05;18.13;;;7.10;99.90;;;;;;6053817;23;20073;-76
2023/03/12 12:25:12;;;;;;;19.98;12.25;;;5.00;99.90;;;;;;6076329;23;20261;-78
2023/03/12 12:28:10;;;;;;;33.15;18.77;;;5.60;99.90;;;;;;6131686;23;20021;-77
2023/03/12 12:30:43;;;;;;;28.17;15.65;;;5.90;99.90;;;;;;6130888;23;20014;-76
2023/03/12 12:33:35;;;;;;;22.33;15.07;;;5.40;99.90;;;;;;6131487;23;20014;-74
2023/03/12 12:36:02;;;;;;;27.70;16.85;;;5.50;99.90;;;;;;6103458;23;20021;-74
2023/03/12 12:38:34;;;;;;;32.67;17.95;;;6.10;99.90;;;;;;6107367;23;20014;-78
2023/03/12 12:41:05;;;;;;;24.92;15.13;;;6.30;99.90;;;;;;6155286;23;20077;-77
2023/03/12 12:43:40;;;;;;;23.60;14.90;;;6.50;99.90;;;;;;6131502;23;20021;-76
2023/03/12 12:46:06;;;;;;;;;;;6.60;99.90;;;;;;6130977;23;20017;-74
2023/03/12 12:48:50;;;;;;;26.38;15.20;;;6.10;99.90;;;;;;6131635;23;19917;-80
2023/03/12 12:51:38;;;;;;;30.73;16.13;;;6.90;99.90;;;;;;6130748;23;20013;-76
2023/03/12 12:54:12;;;;;;;24.35;14.93;;;7.20;99.90;;;;;;6129643;23;20018;-75
2023/03/12 12:57:03;;;;;;;31.83;16.13;;;7.40;99.90;;;;;;6131880;23;20017;-76
2023/03/12 12:59:55;;;;;;;23.17;13.55;;;5.30;99.90;;;;;;6130887;23;20010;-76
2023/03/12 13:02:26;;;;;;;29.70;15.27;;;6.50;99.90;;;;;;6079703;23;20017;-76
2023/03/12 13:05:00;;;;;;;24.80;15.55;;;7.70;99.90;;;;;;6154916;23;20021;-77
2023/03/12 13:07:25;;;;;;;36.20;18.00;;;7.80;99.90;;;;;;6106262;23;20316;-76
2023/03/12 13:09:53;;;;;;;28.95;14.77;;;7.80;99.90;;;;;;6131091;23;20022;-78
2023/03/12 13:12:38;;;;;;;32.92;17.30;;;7.90;99.90;;;;;;6129916;23;20022;-78
2023/03/12 13:15:28;;;;;;;29.60;16.38;;;8.20;99.90;;;;;;6129336;23;20049;-78
2023/03/12 13:18:04;;;;;;;31.75;15.93;;;7.00;99.90;;;;;;6130547;23;20010;-76
2023/03/12 13:20:40;;;;;;;45.65;21.15;;;8.20;99.90;;;;;;6129971;23;20010;-74
2023/03/12 13:23:24;;;;;;;27.85;15.13;;;8.40;99.90;;;;;;6129679;23;20018;-76
2023/03/12 13:26:14;;;;;;;32.97;16.20;;;8.40;99.90;;;;;;6130658;23;20346;-77
2023/03/12 13:28:51;;;;;;;33.92;17.35;;;8.00;99.90;;;;;;6129533;23;20228;-75
2023/03/12 13:31:23;;;;;;;40.42;20.15;;;8.70;99.90;;;;;;6129734;23;20018;-76
2023/03/12 13:33:52;;;;;;;39.13;18.15;;;8.20;99.90;;;;;;6130091;23;20315;-75
2023/03/12 13:36:22;;;;;;;33.63;16.83;;;9.00;99.90;;;;;;6128775;23;20260;-75
2023/03/12 13:38:59;;;;;;;35.50;16.80;;;9.30;99.90;;;;;;6131288;23;20243;-78
2023/03/12 13:41:46;;;;;;;42.30;18.15;;;9.70;99.90;;;;;;6129069;23;20285;-77
2023/03/12 13:44:33;;;;;;;40.35;17.33;;;9.90;99.90;;;;;;6154506;23;20024;-76
2023/03/12 13:47:35;;;;;;;48.45;18.10;;;9.70;99.90;;;;;;6125441;23;20248;-78
2023/03/12 13:50:21;;;;;;;36.53;15.05;;;10.10;99.90;;;;;;6129412;23;20017;-76
2023/03/12 13:53:14;;;;;;;38.65;14.07;;;10.10;99.90;;;;;;6104375;23;20016;-76
2023/03/12 13:59:16;;;;;;;39.38;14.43;;;7.70;99.90;;;;;;6074583;23;20069;-76
2023/03/12 14:01:48;;;;;;;28.25;12.05;;;9.40;99.90;;;;;;6075570;23;20044;-78
2023/03/12 14:04:24;;;;;;;34.72;11.35;;;10.60;99.90;;;;;;6125289;23;20080;-76
2023/03/12 14:10:52;;;;;;;30.95;10.32;;;9.40;99.90;;;;;;6094080;23;20037;-78
2023/03/12 14:13:48;;;;;;;42.50;10.82;;;9.30;99.90;;;;;;6072598;23;20006;-79
2023/03/12 14:16:49;;;;;;;34.45;11.82;;;9.70;99.90;;;;;;6047879;23;20026;-76
2023/03/12 14:19:58;;;;;;;35.58;10.73;;;8.60;99.90;;;;;;6100929;23;20041;-77
2023/03/12 14:27:27;;;;;;;;;;;;;;;;;;;;;
2023/03/12 14:45:14;;;;;;;38.80;9.18;;;10.40;99.90;;;;;;5962837;24;19919;-76
2023/03/12 14:52:29;;;;;;;25.75;8.38;;;9.60;99.90;;;;;;5990088;23;20232;-78
2023/03/12 14:58:49;;;;;;;22.98;7.85;;;12.00;99.90;;;;;;5934236;24;20053;-78
2023/03/12 15:12:40;;;;;;;19.05;6.40;;;8.70;99.90;;;;;;5989464;23;20149;-78
2023/03/12 15:19:41;;;;;;;;;;;;;;;;;;;;;